createdAt,value
2023-04-04T00:00:57.239Z,99896.50
2023-04-04T00:03:25.377Z,99900.91
2023-04-04T00:05:53.728Z,99897.34
2023-04-04T00:08:22.040Z,99900.03
2023-04-04T00:10:50.190Z,99904.41
2023-04-04T00:13:18.136Z,99902.84
2023-04-04T00:15:46.011Z,99908.75
2023-04-04T00:18:14.139Z,99893.72
2023-04-04T00:20:42.505Z,99898.13
2023-04-04T00:23:13.455Z,99914.69
2023-04-04T00:25:41.633Z,99916.53
2023-04-04T00:28:09.592Z,99927.19
2023-04-04T00:30:40.412Z,99921.19
2023-04-04T00:33:09.184Z,99927.41
2023-04-04T00:35:37.882Z,99934.78
2023-04-04T00:38:06.016Z,99941.97
2023-04-04T00:40:49.828Z,99942.38
2023-04-04T00:43:18.917Z,99953.22
2023-04-04T00:45:47.254Z,99950.63
2023-04-04T00:48:15.621Z,99949.03
2023-04-04T00:50:43.530Z,99951.00
2023-04-04T00:53:11.860Z,99950.13
2023-04-04T00:55:40.516Z,99951.78
2023-04-04T00:58:09.041Z,99947.53
2023-04-04T01:00:38.306Z,99950.22
2023-04-04T01:03:07.928Z,99952.97
2023-04-04T01:05:36.311Z,99949.41
2023-04-04T01:08:04.652Z,99951.97
2023-04-04T01:10:33.908Z,99952.22
2023-04-04T01:13:02.284Z,99944.47
2023-04-04T01:15:32.090Z,99955.50
2023-04-04T01:18:04.322Z,99956.66
2023-04-04T01:20:38.258Z,99956.72
2023-04-04T01:23:11.025Z,99951.50
2023-04-04T01:25:39.669Z,99952.47
2023-04-04T01:28:13.676Z,99957.69
2023-04-04T01:30:44.594Z,99963.06
2023-04-04T01:33:35.374Z,99965.00
2023-04-04T01:36:36.645Z,99966.94
2023-04-04T01:39:58.089Z,99967.38
2023-04-04T01:42:28.694Z,99970.94
2023-04-04T01:44:58.204Z,99981.53
2023-04-04T01:47:42.102Z,99975.47
2023-04-04T01:50:15.557Z,99976.22
2023-04-04T01:52:44.706Z,99977.16
2023-04-04T01:55:12.931Z,99978.19
2023-04-04T01:57:41.557Z,99972.06
2023-04-04T02:00:11.178Z,99980.91
2023-04-04T02:02:46.662Z,99981.91
2023-04-04T02:05:15.060Z,99980.91
2023-04-04T02:07:47.186Z,99979.91
2023-04-04T02:10:23.376Z,99984.25
2023-04-04T02:12:53.480Z,99986.56
2023-04-04T02:15:24.449Z,99979.56
2023-04-04T02:17:52.716Z,99974.25
2023-04-04T02:20:20.796Z,99976.91
2023-04-04T02:22:56.209Z,99977.69
2023-04-04T02:25:25.658Z,99974.19
2023-04-04T02:27:53.902Z,99982.09
2023-04-04T02:30:22.353Z,99985.44
2023-04-04T02:32:51.716Z,99981.03
2023-04-04T02:35:22.026Z,99982.63
2023-04-04T02:37:51.804Z,99979.94
2023-04-04T02:40:24.559Z,99979.06
2023-04-04T02:42:52.515Z,99980.88
2023-04-04T02:45:22.837Z,99977.25
2023-04-04T02:48:00.203Z,99972.78
2023-04-04T02:50:39.665Z,99978.13
2023-04-04T02:53:09.685Z,99977.03
2023-04-04T02:55:38.787Z,99977.84
2023-04-04T02:58:07.116Z,99977.84
2023-04-04T03:00:35.409Z,99985.03
2023-04-04T03:03:04.006Z,99982.63
2023-04-04T03:05:36.311Z,99987.09
2023-04-04T03:08:04.927Z,99986.25
2023-04-04T03:10:32.932Z,99986.13
2023-04-04T03:13:01.116Z,99985.44
2023-04-04T03:15:31.796Z,99982.81
2023-04-04T03:18:00.287Z,99983.72
2023-04-04T03:20:31.561Z,99979.56
2023-04-04T03:22:59.415Z,99975.34
2023-04-04T03:25:27.719Z,99987.59
2023-04-04T03:27:57.043Z,99976.38
2023-04-04T03:30:27.419Z,99973.16
2023-04-04T03:32:56.114Z,99984.53
2023-04-04T03:35:24.957Z,99977.09
2023-04-04T03:37:54.819Z,99977.19
2023-04-04T03:40:22.761Z,99972.03
2023-04-04T03:42:51.656Z,99973.13
2023-04-04T03:45:21.102Z,99970.97
2023-04-04T03:47:49.070Z,99971.69
2023-04-04T03:50:17.450Z,99975.38
2023-04-04T03:52:51.317Z,99971.91
2023-04-04T03:55:20.152Z,99970.22
2023-04-04T03:57:48.472Z,99976.50
2023-04-04T04:00:20.981Z,99980.06
2023-04-04T04:02:48.888Z,99978.56
2023-04-04T04:05:17.482Z,99978.56
2023-04-04T04:07:47.551Z,99972.63
2023-04-04T04:10:15.477Z,99969.22
2023-04-04T04:12:43.359Z,99968.34
2023-04-04T04:15:12.516Z,99964.00
2023-04-04T04:17:42.408Z,99963.06
2023-04-04T04:20:12.600Z,99957.91
2023-04-04T04:22:48.227Z,99954.50
2023-04-04T04:25:17.972Z,99954.31
2023-04-04T04:27:58.278Z,99955.13
2023-04-04T04:30:27.621Z,99955.81
2023-04-04T04:32:56.369Z,99959.22
2023-04-04T04:35:30.941Z,99958.13
2023-04-04T04:38:02.174Z,99957.25
2023-04-04T04:40:30.900Z,99957.84
2023-04-04T04:43:05.696Z,99959.38
2023-04-04T04:45:33.704Z,99965.19
2023-04-04T04:48:10.503Z,99958.94
2023-04-04T04:50:47.934Z,99949.97
2023-04-04T04:53:22.481Z,99958.50
2023-04-04T04:55:52.472Z,99958.28
2023-04-04T04:58:25.001Z,99956.28
2023-04-04T05:01:00.280Z,99962.69
2023-04-04T05:03:37.969Z,99957.63
2023-04-04T05:06:09.110Z,99955.84
2023-04-04T05:08:39.191Z,99947.66
2023-04-04T05:11:19.783Z,99947.09
2023-04-04T05:13:48.803Z,99949.84
2023-04-04T05:16:18.181Z,99958.63
2023-04-04T05:18:48.801Z,99959.81
2023-04-04T05:21:17.127Z,99958.16
2023-04-04T05:23:48.366Z,99945.63
2023-04-04T05:26:18.606Z,99943.88
2023-04-04T05:28:50.644Z,99940.00
2023-04-04T05:31:22.199Z,99942.56
2023-04-04T05:33:52.512Z,99940.25
2023-04-04T05:36:39.653Z,99926.81
2023-04-04T05:39:09.309Z,99926.97
2023-04-04T05:41:44.912Z,99931.19
2023-04-04T05:44:17.154Z,99935.56
2023-04-04T05:46:45.807Z,99931.00
2023-04-04T05:49:14.469Z,99920.09
2023-04-04T05:51:50.694Z,99930.16
2023-04-04T05:54:18.945Z,99930.25
2023-04-04T05:56:47.803Z,99933.75
2023-04-04T05:59:27.397Z,99933.44
2023-04-04T06:02:02.751Z,99930.38
2023-04-04T06:04:32.529Z,99925.19
2023-04-04T06:07:02.651Z,99923.41
2023-04-04T06:09:31.053Z,99917.06
2023-04-04T06:11:59.698Z,99913.66
2023-04-04T06:14:28.628Z,99906.28
2023-04-04T06:16:58.313Z,99907.31
2023-04-04T06:19:27.701Z,99904.59
2023-04-04T06:21:56.083Z,99915.94
2023-04-04T06:24:24.342Z,99913.06
2023-04-04T06:26:53.217Z,99919.81
2023-04-04T06:29:26.330Z,99911.47
2023-04-04T06:31:58.492Z,99914.88
2023-04-04T06:34:36.866Z,99917.97
2023-04-04T06:37:06.088Z,99911.75
2023-04-04T06:39:41.334Z,99897.34
2023-04-04T06:42:17.084Z,99899.72
2023-04-04T06:44:49.316Z,99888.84
2023-04-04T06:47:18.027Z,99900.72
2023-04-04T06:49:46.039Z,99912.56
2023-04-04T06:52:14.498Z,99908.16
2023-04-04T06:54:42.984Z,99908.72
2023-04-04T06:57:10.999Z,99892.94
2023-04-04T06:59:39.324Z,99894.41
2023-04-04T07:02:07.706Z,99892.47
2023-04-04T07:04:38.185Z,99887.78
2023-04-04T07:07:06.494Z,99891.25
2023-04-04T07:09:35.113Z,99884.41
2023-04-04T07:12:03.560Z,99877.47
2023-04-04T07:14:31.927Z,99888.19
2023-04-04T07:17:02.116Z,99875.13
2023-04-04T07:19:31.699Z,99882.28
2023-04-04T07:22:00.156Z,99876.84
2023-04-04T07:24:29.191Z,99877.16
2023-04-04T07:26:57.460Z,99879.13
2023-04-04T07:29:25.574Z,99872.28
2023-04-04T07:31:54.315Z,99860.06
2023-04-04T07:34:22.803Z,99861.13
2023-04-04T07:36:51.086Z,99878.53
2023-04-04T07:39:20.347Z,99874.56
2023-04-04T07:41:48.572Z,99864.88
2023-04-04T07:44:16.788Z,99860.22
2023-04-04T07:46:49.830Z,99845.53
2023-04-04T07:49:24.170Z,99838.59
2023-04-04T07:51:52.556Z,99834.94
2023-04-04T07:54:20.630Z,99834.00
2023-04-04T07:56:48.957Z,99841.31
2023-04-04T07:59:17.362Z,99837.09
2023-04-04T08:01:46.268Z,99832.81
2023-04-04T08:04:14.948Z,99834.16
2023-04-04T08:06:43.739Z,99828.22
2023-04-04T08:09:11.939Z,99820.22
2023-04-04T08:11:40.100Z,99815.25
2023-04-04T08:14:12.218Z,99831.88
2023-04-04T08:16:41.134Z,99833.47
2023-04-04T08:19:09.972Z,99812.75
2023-04-04T08:21:38.352Z,99810.63
2023-04-04T08:24:08.105Z,99821.72
2023-04-04T08:26:36.698Z,99818.97
2023-04-04T08:29:05.356Z,99810.53
2023-04-04T08:31:34.430Z,99807.41
2023-04-04T08:34:02.659Z,99827.34
2023-04-04T08:36:31.090Z,99814.59
2023-04-04T08:39:01.870Z,99812.06
2023-04-04T08:41:35.181Z,99794.34
2023-04-04T08:44:05.269Z,99799.66
2023-04-04T08:46:33.767Z,99805.34
2023-04-04T08:49:04.547Z,99792.38
2023-04-04T08:51:34.477Z,99803.88
2023-04-04T08:54:03.696Z,99800.91
2023-04-04T08:56:32.685Z,99795.16
2023-04-04T08:59:01.291Z,99793.63
2023-04-04T09:01:30.006Z,99794.38
2023-04-04T09:04:01.018Z,99782.81
2023-04-04T09:06:29.133Z,99784.13
2023-04-04T09:08:59.897Z,99786.78
2023-04-04T09:11:31.926Z,99790.88
2023-04-04T09:14:04.616Z,99787.53
2023-04-04T09:16:33.001Z,99775.00
2023-04-04T09:19:01.408Z,99780.22
2023-04-04T09:21:35.032Z,99764.53
2023-04-04T09:24:03.291Z,99767.97
2023-04-04T09:26:52.604Z,99778.69
2023-04-04T09:29:22.014Z,99774.81
2023-04-04T09:31:51.623Z,99775.84
2023-04-04T09:34:21.848Z,99773.97
2023-04-04T09:36:50.292Z,99771.28
2023-04-04T09:39:23.518Z,99798.47
2023-04-04T09:41:52.186Z,99779.59
2023-04-04T09:44:20.563Z,99773.19
2023-04-04T09:46:52.326Z,99785.09
2023-04-04T09:49:23.955Z,99772.78
2023-04-04T09:51:55.663Z,99756.56
2023-04-04T09:54:29.716Z,99755.22
2023-04-04T09:56:59.460Z,99746.16
2023-04-04T09:59:28.612Z,99739.31
2023-04-04T10:01:57.136Z,99739.31
2023-04-04T10:04:27.418Z,99741.13
2023-04-04T10:06:56.481Z,99745.81
2023-04-04T10:09:25.183Z,99736.69
2023-04-04T10:12:10.063Z,99749.78
2023-04-04T10:14:38.886Z,99757.44
2023-04-04T10:17:13.689Z,99754.69
2023-04-04T10:19:43.055Z,99748.38
2023-04-04T10:22:11.991Z,99749.78
2023-04-04T10:24:40.251Z,99747.25
2023-04-04T10:27:10.407Z,99745.19
2023-04-04T10:29:38.804Z,99747.53
2023-04-04T10:32:10.171Z,99751.00
2023-04-04T10:35:08.075Z,99756.91
2023-04-04T10:37:44.238Z,99752.72
2023-04-04T10:40:19.861Z,99754.81
2023-04-04T10:42:50.206Z,99760.81
2023-04-04T10:45:21.734Z,99736.53
2023-04-04T10:47:51.332Z,99745.22
2023-04-04T10:50:21.808Z,99764.25
2023-04-04T10:52:51.838Z,99750.78
2023-04-04T10:55:20.438Z,99760.34
2023-04-04T10:57:52.923Z,99747.09
2023-04-04T11:00:23.737Z,99762.00
2023-04-04T11:02:58.775Z,99762.38
2023-04-04T11:05:51.656Z,99763.66
2023-04-04T11:08:25.246Z,99750.53
2023-04-04T11:10:55.265Z,99752.16
2023-04-04T11:13:29.458Z,99747.03
2023-04-04T11:16:16.132Z,99760.31
2023-04-04T11:18:45.673Z,99768.78
2023-04-04T11:21:26.652Z,99757.34
2023-04-04T11:23:54.534Z,99758.69
2023-04-04T11:26:46.181Z,99755.94
2023-04-04T11:29:22.854Z,99745.72
2023-04-04T11:31:52.147Z,99748.13
2023-04-04T11:34:34.294Z,99750.94
2023-04-04T11:37:20.231Z,99752.66
2023-04-04T11:39:59.253Z,99739.59
2023-04-04T11:42:38.540Z,99763.09
2023-04-04T11:45:09.866Z,99747.63
2023-04-04T11:47:40.279Z,99740.50
2023-04-04T11:50:10.978Z,99736.13
2023-04-04T11:52:39.616Z,99730.88
2023-04-04T11:55:20.158Z,99731.22
2023-04-04T11:57:55.708Z,99728.06
2023-04-04T12:00:32.407Z,99719.34
2023-04-04T12:03:00.646Z,99733.97
2023-04-04T12:05:30.952Z,99725.41
2023-04-04T12:08:02.774Z,99725.28
2023-04-04T12:10:36.260Z,99725.06
2023-04-04T12:13:10.419Z,99713.53
2023-04-04T12:15:39.496Z,99707.44
2023-04-04T12:18:09.410Z,99722.69
2023-04-04T12:20:41.900Z,99702.06
2023-04-04T12:23:10.290Z,99714.63
2023-04-04T12:25:40.490Z,99708.66
2023-04-04T12:28:09.525Z,99706.19
2023-04-04T12:30:39.363Z,99706.09
2023-04-04T12:33:07.737Z,99706.97
2023-04-04T12:35:36.663Z,99708.09
2023-04-04T12:38:10.833Z,99725.94
2023-04-04T12:40:39.889Z,99728.13
2023-04-04T12:43:17.844Z,99712.72
2023-04-04T12:45:46.752Z,99724.00
2023-04-04T12:48:18.162Z,99717.09
2023-04-04T12:50:55.099Z,99712.69
2023-04-04T12:53:30.262Z,99711.81
2023-04-04T12:56:05.215Z,99703.25
2023-04-04T12:58:36.005Z,99701.69
2023-04-04T13:01:05.399Z,99709.94
2023-04-04T13:03:36.047Z,99715.75
2023-04-04T13:06:12.084Z,99705.91
2023-04-04T13:08:54.415Z,99706.22
2023-04-04T13:11:23.576Z,99706.84
2023-04-04T13:14:04.389Z,99717.75
2023-04-04T13:16:37.301Z,99697.38
2023-04-04T13:19:06.691Z,99699.56
2023-04-04T13:21:35.733Z,99699.63
2023-04-04T13:24:04.257Z,99708.69
2023-04-04T13:26:32.548Z,99699.63
2023-04-04T13:29:00.982Z,99695.13
2023-04-04T13:31:29.012Z,99695.03
2023-04-04T13:33:58.340Z,99699.78
2023-04-04T13:36:28.458Z,99708.94
2023-04-04T13:38:56.633Z,99717.38
2023-04-04T13:41:25.252Z,99709.16
2023-04-04T13:43:53.442Z,99703.66
2023-04-04T13:46:22.153Z,99693.84
2023-04-04T13:48:50.634Z,99694.19
2023-04-04T13:51:18.913Z,99688.91
2023-04-04T13:53:46.880Z,99699.38
2023-04-04T13:56:18.856Z,99692.28
2023-04-04T13:58:48.176Z,99696.88
2023-04-04T14:01:16.752Z,99707.38
2023-04-04T14:03:45.320Z,99718.13
2023-04-04T14:06:13.758Z,99717.75
2023-04-04T14:08:41.866Z,99695.09
2023-04-04T14:11:10.032Z,99698.63
2023-04-04T14:13:38.520Z,99694.84
2023-04-04T14:16:08.776Z,99701.03
2023-04-04T14:18:37.054Z,99699.69
2023-04-04T14:21:06.360Z,99691.47
2023-04-04T14:23:34.361Z,99686.97
2023-04-04T14:26:02.485Z,99686.38
2023-04-04T14:28:30.807Z,99690.50
2023-04-04T14:30:59.037Z,99687.03
2023-04-04T14:33:27.433Z,99687.50
2023-04-04T14:35:55.452Z,99691.78
2023-04-04T14:38:23.666Z,99697.09
2023-04-04T14:40:52.719Z,99696.66
2023-04-04T14:43:21.807Z,99700.41
2023-04-04T14:45:49.954Z,99697.13
2023-04-04T14:48:18.159Z,99697.00
2023-04-04T14:50:47.320Z,99702.91
2023-04-04T14:53:16.037Z,99704.50
2023-04-04T14:55:44.187Z,99697.41
2023-04-04T14:58:13.212Z,99702.91
2023-04-04T15:00:41.168Z,99695.56
2023-04-04T15:03:09.280Z,99700.22
2023-04-04T15:05:37.600Z,99703.03
2023-04-04T15:08:05.958Z,99709.81
2023-04-04T15:10:34.050Z,99698.28
2023-04-04T15:13:02.236Z,99702.91
2023-04-04T15:15:31.528Z,99689.31
2023-04-04T15:17:59.651Z,99699.19
2023-04-04T15:20:27.615Z,99691.63
2023-04-04T15:22:55.755Z,99697.97
2023-04-04T15:25:24.157Z,99699.72
2023-04-04T15:27:52.151Z,99708.03
2023-04-04T15:30:20.597Z,99707.75
2023-04-04T15:32:48.778Z,99706.28
2023-04-04T15:35:21.160Z,99705.13
2023-04-04T15:37:50.586Z,99706.34
2023-04-04T15:40:19.759Z,99705.78
2023-04-04T15:42:49.005Z,99716.38
2023-04-04T15:45:18.162Z,99705.31
2023-04-04T15:47:47.305Z,99713.56
2023-04-04T15:50:15.786Z,99707.84
2023-04-04T15:52:43.933Z,99721.56
2023-04-04T15:55:17.117Z,99721.47
2023-04-04T15:57:46.051Z,99725.41
2023-04-04T16:00:15.122Z,99718.94
2023-04-04T16:02:43.681Z,99725.34
2023-04-04T16:05:12.314Z,99723.19
2023-04-04T16:07:40.400Z,99723.69
2023-04-04T16:10:09.566Z,99727.66
2023-04-04T16:12:38.333Z,99736.75
2023-04-04T16:15:08.424Z,99731.69
2023-04-04T16:17:36.860Z,99741.72
2023-04-04T16:20:07.744Z,99739.84
2023-04-04T16:22:36.756Z,99754.59
2023-04-04T16:25:08.847Z,99756.16
2023-04-04T16:27:38.188Z,99763.31
2023-04-04T16:30:07.405Z,99762.25
2023-04-04T16:32:35.662Z,99767.59
2023-04-04T16:35:04.339Z,99768.22
2023-04-04T16:37:32.609Z,99767.19
2023-04-04T16:40:01.418Z,99763.66
2023-04-04T16:42:29.840Z,99768.00
2023-04-04T16:44:58.324Z,99769.00
2023-04-04T16:47:28.048Z,99778.69
2023-04-04T16:49:57.064Z,99776.06
2023-04-04T16:52:25.752Z,99774.00
2023-04-04T16:54:57.493Z,99771.53
2023-04-04T16:57:27.471Z,99780.44
2023-04-04T16:59:55.732Z,99778.44
2023-04-04T17:02:23.887Z,99770.50
2023-04-04T17:04:52.629Z,99769.31
2023-04-04T17:07:24.476Z,99774.75
2023-04-04T17:09:53.960Z,99779.13
2023-04-04T17:12:22.321Z,99787.50
2023-04-04T17:14:50.775Z,99784.88
2023-04-04T17:17:19.625Z,99786.84
2023-04-04T17:19:48.441Z,99795.16
2023-04-04T17:22:16.768Z,99798.19
2023-04-04T17:24:45.944Z,99806.81
2023-04-04T17:27:14.259Z,99808.34
2023-04-04T17:29:42.494Z,99802.53
2023-04-04T17:32:11.374Z,99818.44
2023-04-04T17:34:39.797Z,99813.69
2023-04-04T17:37:11.857Z,99821.31
2023-04-04T17:39:41.530Z,99820.75
2023-04-04T17:42:11.338Z,99825.03
2023-04-04T17:44:40.602Z,99828.78
2023-04-04T17:47:09.367Z,99834.53
2023-04-04T17:49:40.125Z,99829.28
2023-04-04T17:52:09.192Z,99841.22
2023-04-04T17:54:38.298Z,99842.91
2023-04-04T17:57:07.807Z,99848.44
2023-04-04T17:59:37.161Z,99853.69
2023-04-04T18:02:05.983Z,99848.66
2023-04-04T18:04:34.966Z,99852.63
2023-04-04T18:07:03.629Z,99862.28
2023-04-04T18:09:32.670Z,99865.16
2023-04-04T18:12:02.865Z,99862.81
2023-04-04T18:14:32.155Z,99867.03
2023-04-04T18:17:00.766Z,99866.34
2023-04-04T18:19:29.700Z,99864.47
2023-04-04T18:22:00.392Z,99867.59
2023-04-04T18:24:29.269Z,99868.53
2023-04-04T18:26:57.486Z,99865.31
2023-04-04T18:29:26.914Z,99871.72
2023-04-04T18:31:55.583Z,99875.63
2023-04-04T18:34:24.801Z,99875.41
2023-04-04T18:36:53.668Z,99883.75
2023-04-04T18:39:23.318Z,99882.03
2023-04-04T18:41:51.937Z,99876.97
2023-04-04T18:44:22.475Z,99878.41
2023-04-04T18:46:51.579Z,99882.13
2023-04-04T18:49:20.057Z,99879.19
2023-04-04T18:51:48.245Z,99886.13
2023-04-04T18:54:17.357Z,99884.75
2023-04-04T18:56:45.782Z,99884.13
2023-04-04T18:59:15.201Z,99889.44
2023-04-04T19:01:44.115Z,99878.16
2023-04-04T19:04:14.043Z,99879.78
2023-04-04T19:06:44.457Z,99882.34
2023-04-04T19:09:13.573Z,99877.38
2023-04-04T19:11:45.407Z,99879.28
2023-04-04T19:14:14.296Z,99881.41
2023-04-04T19:16:42.981Z,99872.94
2023-04-04T19:19:12.484Z,99872.94
2023-04-04T19:21:41.990Z,99868.22
2023-04-04T19:24:11.764Z,99876.09
2023-04-04T19:26:40.185Z,99875.88
2023-04-04T19:29:09.034Z,99879.56
2023-04-04T19:31:38.287Z,99879.66
2023-04-04T19:34:10.026Z,99877.28
2023-04-04T19:36:39.182Z,99880.59
2023-04-04T19:39:11.201Z,99873.38
2023-04-04T19:41:41.287Z,99881.06
2023-04-04T19:44:21.374Z,99874.97
2023-04-04T19:46:50.536Z,99871.91
2023-04-04T19:49:22.440Z,99865.09
2023-04-04T19:51:58.254Z,99867.28
2023-04-04T19:54:39.549Z,99869.13
2023-04-04T19:57:30.775Z,99867.03
2023-04-04T20:00:14.123Z,99872.81
2023-04-04T20:02:58.166Z,99867.81
2023-04-04T20:05:47.184Z,99865.88
2023-04-04T20:08:17.182Z,99868.66
2023-04-04T20:10:45.642Z,99871.63
2023-04-04T20:13:14.382Z,99871.97
2023-04-04T20:15:48.965Z,99872.44
2023-04-04T20:18:27.360Z,99871.03
2023-04-04T20:21:05.586Z,99873.03
2023-04-04T20:23:42.759Z,99882.78
2023-04-04T20:26:16.250Z,99875.38
2023-04-04T20:28:48.883Z,99879.81
2023-04-04T20:31:18.768Z,99880.25
2023-04-04T20:33:47.808Z,99877.69
2023-04-04T20:36:22.122Z,99881.44
2023-04-04T20:38:50.557Z,99887.59
2023-04-04T20:41:23.584Z,99881.66
2023-04-04T20:43:58.873Z,99884.53
2023-04-04T20:46:29.058Z,99888.22
2023-04-04T20:48:57.751Z,99890.13
2023-04-04T20:51:32.702Z,99883.19
2023-04-04T20:54:03.478Z,99887.84
2023-04-04T20:56:41.430Z,99884.44
2023-04-04T20:59:35.656Z,99889.81
2023-04-04T21:02:17.007Z,99893.44
2023-04-04T21:04:48.407Z,99892.59
2023-04-04T21:07:55.285Z,99893.63
2023-04-04T21:10:24.786Z,99890.44
2023-04-04T21:12:58.789Z,99898.41
2023-04-04T21:15:31.003Z,99899.25
2023-04-04T21:18:02.978Z,99888.03
2023-04-04T21:20:47.010Z,99894.31
2023-04-04T21:23:27.421Z,99879.03
2023-04-04T21:26:03.580Z,99882.56
2023-04-04T21:28:33.303Z,99880.13
2023-04-04T21:31:14.117Z,99869.69
2023-04-04T21:33:47.893Z,99869.56
2023-04-04T21:36:29.712Z,99880.75
2023-04-04T21:39:29.920Z,99880.91
2023-04-04T21:41:59.832Z,99873.94
2023-04-04T21:44:28.627Z,99870.34
2023-04-04T21:46:57.064Z,99868.56
2023-04-04T21:49:25.571Z,99871.81
2023-04-04T21:51:53.716Z,99867.03
2023-04-04T21:54:23.019Z,99867.13
2023-04-04T21:56:51.152Z,99866.41
2023-04-04T21:59:19.409Z,99860.38
2023-04-04T22:01:47.662Z,99863.63
2023-04-04T22:04:15.854Z,99863.56
2023-04-04T22:06:44.092Z,99866.31
2023-04-04T22:09:12.149Z,99876.84
2023-04-04T22:11:44.741Z,99868.13
2023-04-04T22:14:18.127Z,99874.22
2023-04-04T22:16:46.573Z,99877.09
2023-04-04T22:19:14.811Z,99872.88
2023-04-04T22:21:48.224Z,99871.22
2023-04-04T22:24:18.678Z,99876.69
2023-04-04T22:26:47.519Z,99868.72
2023-04-04T22:29:16.009Z,99874.91
2023-04-04T22:31:44.656Z,99863.59
2023-04-04T22:34:14.907Z,99869.78
2023-04-04T22:36:44.417Z,99873.31
2023-04-04T22:39:16.349Z,99876.03
2023-04-04T22:41:44.853Z,99878.78
2023-04-04T22:44:14.209Z,99879.81
2023-04-04T22:46:42.293Z,99879.22
2023-04-04T22:49:10.713Z,99880.94
2023-04-04T22:51:46.068Z,99882.75
2023-04-04T22:54:17.325Z,99886.31
2023-04-04T22:56:46.106Z,99885.38
2023-04-04T22:59:14.760Z,99883.53
2023-04-04T23:01:42.908Z,99878.44
2023-04-04T23:04:11.659Z,99881.97
2023-04-04T23:06:40.051Z,99882.28
2023-04-04T23:09:08.513Z,99876.88
2023-04-04T23:11:38.644Z,99882.19
2023-04-04T23:14:14.913Z,99882.34
2023-04-04T23:16:43.397Z,99878.69
2023-04-04T23:19:11.891Z,99870.94
2023-04-04T23:21:40.377Z,99870.16
2023-04-04T23:24:08.502Z,99870.34
2023-04-04T23:26:36.674Z,99863.34
2023-04-04T23:29:06.048Z,99871.25
2023-04-04T23:31:34.332Z,99873.19
2023-04-04T23:34:02.533Z,99866.59
2023-04-04T23:36:31.321Z,99869.50
2023-04-04T23:38:59.503Z,99869.56
2023-04-04T23:41:27.452Z,99867.22
2023-04-04T23:43:55.725Z,99869.16
2023-04-04T23:46:24.295Z,99868.78
2023-04-04T23:48:52.446Z,99866.13
2023-04-04T23:51:21.633Z,99862.06
2023-04-04T23:53:49.907Z,99865.03
2023-04-04T23:56:18.224Z,99864.66
2023-04-04T23:58:46.681Z,99863.63
